Time;durP1;ratioP1;P1;durP2;ratioP2;P2;SDS_P1;SDS_P2;PMS_P1;PMS_P2;Temp;Humidity;BMP_temperature;BMP_pressure;BME280_temperature;BME280_humidity;BME280_pressure;Samples;Min_cycle;Max_cycle;Signal;HPM_P1;HPM_P2
2024/02/21 00:01:24;;;;;;;;;21.00;16.50;;;;;;;;5079148;28;45369;-69
2024/02/21 00:03:49;;;;;;;;;17.00;15.00;;;;;;;;5079019;28;45461;-69
2024/02/21 00:06:14;;;;;;;;;19.00;17.00;;;;;;;;5078748;27;45873;-69
2024/02/21 00:08:39;;;;;;;;;19.00;17.00;;;;;;;;5079113;28;45564;-69
2024/02/21 00:11:05;;;;;;;;;17.50;16.00;;;;;;;;5079458;27;45272;-70
2024/02/21 00:13:30;;;;;;;;;19.00;15.25;;;;;;;;5078671;28;45324;-69
2024/02/21 00:15:55;;;;;;;;;15.75;13.25;;;;;;;;5078765;28;46346;-69
2024/02/21 00:18:21;;;;;;;;;12.50;12.00;;;;;;;;5077750;27;45348;-69
2024/02/21 00:20:46;;;;;;;;;17.00;16.00;;;;;;;;5082000;27;45487;-69
2024/02/21 00:23:11;;;;;;;;;16.33;16.33;;;;;;;;5082235;27;45598;-69
2024/02/21 00:25:37;;;;;;;;;12.50;12.25;;;;;;;;5082115;27;46157;-69
2024/02/21 00:28:02;;;;;;;;;22.00;17.00;;;;;;;;5081564;27;45312;-69
2024/02/21 00:30:27;;;;;;;;;17.75;14.25;;;;;;;;5078958;27;45337;-69
2024/02/21 00:32:52;;;;;;;;;17.75;14.50;;;;;;;;5080967;27;45406;-70
2024/02/21 00:35:17;;;;;;;;;19.33;16.33;;;;;;;;5078596;27;45489;-69
2024/02/21 00:37:43;;;;;;;;;21.00;19.00;;;;;;;;5082324;28;45394;-69
2024/02/21 00:40:08;;;;;;;;;21.67;19.00;;;;;;;;5082201;27;45321;-69
2024/02/21 00:42:33;;;;;;;;;19.00;17.25;;;;;;;;5081663;27;45502;-69
2024/02/21 00:44:59;;;;;;;;;17.75;14.25;;;;;;;;5081196;27;46195;-69
2024/02/21 00:47:24;;;;;;;;;13.25;13.25;;;;;;;;5081261;27;45371;-69
2024/02/21 00:49:49;;;;;;;;;18.33;16.00;;;;;;;;5081853;27;45374;-69
2024/02/21 00:52:14;;;;;;;;;20.67;19.67;;;;;;;;5082145;27;45456;-69
2024/02/21 00:54:39;;;;;;;;;29.67;24.67;;;;;;;;5081728;27;45595;-69
2024/02/21 00:57:04;;;;;;;;;26.67;25.33;;;;;;;;5072216;27;45592;-69
2024/02/21 00:59:30;;;;;;;;;32.33;29.00;;;;;;;;5081473;27;45293;-69
2024/02/21 01:01:55;;;;;;;;;25.67;24.33;;;;;;;;5081250;27;45401;-69
2024/02/21 01:04:20;;;;;;;;;16.00;16.00;;;;;;;;5081914;27;45697;-69
2024/02/21 01:06:45;;;;;;;;;22.67;18.33;;;;;;;;5081841;27;45583;-69
2024/02/21 01:09:11;;;;;;;;;15.67;15.33;;;;;;;;5082009;27;45393;-70
2024/02/21 01:11:36;;;;;;;;;18.25;16.50;;;;;;;;5080782;27;45449;-69
2024/02/21 01:14:01;;;;;;;;;21.67;19.00;;;;;;;;5079647;27;45952;-69
2024/02/21 01:16:27;;;;;;;;;29.25;25.00;;;;;;;;5080556;28;45369;-69
2024/02/21 01:18:52;;;;;;;;;30.33;26.33;;;;;;;;5080097;28;45410;-69
2024/02/21 01:21:17;;;;;;;;;27.00;23.00;;;;;;;;5080673;27;45333;-69
2024/02/21 01:23:42;;;;;;;;;17.75;13.75;;;;;;;;5080359;27;45377;-69
2024/02/21 01:26:08;;;;;;;;;19.33;15.67;;;;;;;;5080326;28;45495;-69
2024/02/21 01:28:33;;;;;;;;;15.75;13.50;;;;;;;;5079213;27;45310;-69
2024/02/21 01:30:59;;;;;;;;;16.50;16.50;;;;;;;;5078654;28;45731;-69
2024/02/21 01:33:24;;;;;;;;;15.67;14.33;;;;;;;;5078432;27;45900;-69
2024/02/21 01:35:49;;;;;;;;;26.00;23.33;;;;;;;;5076455;28;45426;-69
2024/02/21 01:38:15;;;;;;;;;22.00;20.75;;;;;;;;5079687;28;45419;-69
2024/02/21 01:40:40;;;;;;;;;16.00;16.00;;;;;;;;5079494;27;45375;-69
2024/02/21 01:43:14;;;;;;;;;17.00;16.00;;;;;;;;5079671;27;46708;-69
2024/02/21 01:45:40;;;;;;;;;21.75;21.25;;;;;;;;5079880;27;45255;-69
2024/02/21 01:48:06;;;;;;;;;22.00;17.25;;;;;;;;5080066;27;45291;-69
2024/02/21 01:50:31;;;;;;;;;18.75;14.00;;;;;;;;5080033;27;45520;-69
2024/02/21 01:52:57;;;;;;;;;18.50;14.00;;;;;;;;5079823;27;45516;-69
2024/02/21 01:55:22;;;;;;;;;14.75;14.75;;;;;;;;5080004;27;45310;-69
2024/02/21 01:57:47;;;;;;;;;18.67;14.67;;;;;;;;5069170;27;45231;-69
2024/02/21 02:00:13;;;;;;;;;19.75;19.00;;;;;;;;5079496;27;45591;-69
2024/02/21 02:02:38;;;;;;;;;29.50;25.75;;;;;;;;5078900;28;46982;-69
2024/02/21 02:05:04;;;;;;;;;29.00;24.75;;;;;;;;5079569;28;45380;-69
2024/02/21 02:07:29;;;;;;;;;23.75;21.00;;;;;;;;5077645;27;45445;-69
2024/02/21 02:09:54;;;;;;;;;24.67;19.33;;;;;;;;5077434;27;45803;-69
2024/02/21 02:12:20;;;;;;;;;18.75;17.75;;;;;;;;5040113;27;1110051;-69
2024/02/21 02:14:46;;;;;;;;;9.25;8.00;;;;;;;;5080663;27;45784;-69
2024/02/21 02:17:11;;;;;;;;;19.33;14.67;;;;;;;;5080868;27;45490;-69
2024/02/21 02:19:37;;;;;;;;;15.00;13.25;;;;;;;;5073367;27;45561;-69
2024/02/21 02:22:08;;;;;;;;;18.00;16.67;;;;;;;;5077435;27;45989;-69
2024/02/21 02:24:34;;;;;;;;;27.75;24.00;;;;;;;;5080404;28;45317;-69
2024/02/21 02:26:59;;;;;;;;;19.00;19.00;;;;;;;;5080011;27;45286;-69
2024/02/21 02:29:24;;;;;;;;;19.00;18.33;;;;;;;;5080028;27;45627;-69
2024/02/21 02:31:49;;;;;;;;;28.67;27.00;;;;;;;;5078939;27;45357;-69
2024/02/21 02:34:15;;;;;;;;;25.00;22.33;;;;;;;;5078861;27;45493;-70
2024/02/21 02:36:40;;;;;;;;;24.33;19.00;;;;;;;;5077303;27;45430;-69
2024/02/21 02:39:05;;;;;;;;;15.67;14.33;;;;;;;;5080612;27;45519;-69
2024/02/21 02:41:30;;;;;;;;;17.67;16.33;;;;;;;;5079018;28;46208;-69
2024/02/21 02:43:56;;;;;;;;;17.00;12.67;;;;;;;;5080402;28;45290;-69
2024/02/21 02:46:21;;;;;;;;;30.75;25.25;;;;;;;;5080094;27;45372;-69
2024/02/21 02:48:46;;;;;;;;;33.00;30.67;;;;;;;;5080474;28;45311;-69
2024/02/21 02:51:11;;;;;;;;;35.67;32.67;;;;;;;;5078959;27;45575;-69
2024/02/21 02:53:36;;;;;;;;;30.33;30.33;;;;;;;;5080220;27;45303;-69
2024/02/21 02:56:02;;;;;;;;;32.00;27.00;;;;;;;;5082053;27;45681;-69
2024/02/21 02:58:28;;;;;;;;;21.50;19.00;;;;;;;;5080008;27;45548;-69
2024/02/21 03:00:53;;;;;;;;;19.00;16.75;;;;;;;;5079518;27;45519;-69
2024/02/21 03:03:18;;;;;;;;;17.00;16.00;;;;;;;;5078649;27;45313;-69
2024/02/21 03:05:44;;;;;;;;;21.33;17.33;;;;;;;;5079787;27;45274;-69
2024/02/21 03:08:09;;;;;;;;;16.75;13.25;;;;;;;;5079188;27;45470;-69
2024/02/21 03:10:34;;;;;;;;;33.00;27.33;;;;;;;;5078737;27;45425;-69
2024/02/21 03:12:59;;;;;;;;;37.33;32.67;;;;;;;;5079113;27;45529;-69
2024/02/21 03:15:24;;;;;;;;;42.25;36.50;;;;;;;;5079698;27;45359;-69
2024/02/21 03:17:50;;;;;;;;;27.67;27.33;;;;;;;;5079800;27;45582;-69
2024/02/21 03:20:15;;;;;;;;;44.00;35.67;;;;;;;;5079468;27;45405;-69
2024/02/21 03:22:40;;;;;;;;;24.75;22.00;;;;;;;;5079643;27;45255;-69
2024/02/21 03:25:06;;;;;;;;;21.50;17.00;;;;;;;;5079887;28;45455;-69
2024/02/21 03:27:32;;;;;;;;;21.00;15.75;;;;;;;;5081773;27;45318;-69
2024/02/21 03:29:57;;;;;;;;;17.75;15.00;;;;;;;;5079149;27;45346;-70
2024/02/21 03:32:22;;;;;;;;;16.75;15.00;;;;;;;;5078115;28;45506;-70
2024/02/21 03:34:47;;;;;;;;;23.67;23.00;;;;;;;;5075404;27;45281;-69
2024/02/21 03:37:13;;;;;;;;;17.00;15.00;;;;;;;;5079472;27;45461;-69
2024/02/21 03:39:38;;;;;;;;;39.50;34.25;;;;;;;;5078227;28;46288;-69
2024/02/21 03:42:06;;;;;;;;;38.00;33.00;;;;;;;;5078296;28;45299;-69
2024/02/21 03:44:32;;;;;;;;;33.25;28.75;;;;;;;;5079067;28;45402;-69
2024/02/21 03:46:57;;;;;;;;;23.00;18.33;;;;;;;;5078914;28;45479;-69
2024/02/21 03:49:22;;;;;;;;;17.50;14.50;;;;;;;;5079114;27;45361;-70
2024/02/21 03:51:47;;;;;;;;;18.00;14.00;;;;;;;;5079377;27;45427;-69
2024/02/21 03:54:13;;;;;;;;;12.00;12.00;;;;;;;;5079335;27;45488;-70
2024/02/21 03:56:39;;;;;;;;;18.75;15.00;;;;;;;;5078324;27;45359;-69
2024/02/21 03:59:05;;;;;;;;;22.75;19.50;;;;;;;;5079030;27;46483;-69
2024/02/21 04:01:30;;;;;;;;;14.33;11.67;;;;;;;;5081967;27;45324;-69
2024/02/21 04:03:55;;;;;;;;;28.67;25.00;;;;;;;;5079339;27;45260;-69
2024/02/21 04:06:20;;;;;;;;;51.33;40.33;;;;;;;;5078150;27;45396;-69
2024/02/21 04:08:45;;;;;;;;;30.50;28.50;;;;;;;;5078807;28;46207;-69
2024/02/21 04:11:10;;;;;;;;;28.33;25.67;;;;;;;;5078166;28;45477;-69
2024/02/21 04:13:36;;;;;;;;;35.00;30.67;;;;;;;;5079125;28;45404;-70
2024/02/21 04:16:01;;;;;;;;;22.67;22.67;;;;;;;;5081236;27;45372;-70
2024/02/21 04:18:26;;;;;;;;;19.50;15.25;;;;;;;;5078697;28;45365;-69
2024/02/21 04:20:51;;;;;;;;;10.67;5.00;;;;;;;;5078911;28;45451;-69
2024/02/21 04:23:17;;;;;;;;;17.67;15.67;;;;;;;;5079004;27;45611;-69
2024/02/21 04:25:42;;;;;;;;;5.00;5.00;;;;;;;;5078729;28;45369;-69
2024/02/21 04:28:07;;;;;;;;;16.00;15.00;;;;;;;;5077847;27;45251;-69
2024/02/21 04:30:32;;;;;;;;;17.00;16.67;;;;;;;;5079057;27;45507;-69
2024/02/21 04:32:57;;;;;;;;;16.67;15.67;;;;;;;;5077722;27;45316;-70
2024/02/21 04:35:22;;;;;;;;;12.67;11.67;;;;;;;;5074177;27;45672;-69
2024/02/21 04:37:48;;;;;;;;;16.67;14.00;;;;;;;;5078633;27;45518;-70
2024/02/21 04:40:14;;;;;;;;;19.75;14.75;;;;;;;;5078744;28;45378;-69
2024/02/21 04:42:40;;;;;;;;;15.25;11.75;;;;;;;;5078488;28;45311;-69
2024/02/21 04:45:05;;;;;;;;;20.75;18.50;;;;;;;;5078417;27;45508;-69
2024/02/21 04:47:30;;;;;;;;;15.50;13.00;;;;;;;;5078319;27;46416;-69
2024/02/21 04:49:55;;;;;;;;;17.50;16.00;;;;;;;;5078472;28;45507;-69
2024/02/21 04:52:21;;;;;;;;;16.00;14.00;;;;;;;;5078656;27;45396;-69
2024/02/21 04:54:46;;;;;;;;;17.50;14.75;;;;;;;;5078450;27;45540;-70
2024/02/21 04:57:16;;;;;;;;;16.75;16.75;;;;;;;;5077785;27;47066;-70
2024/02/21 04:59:41;;;;;;;;;16.00;14.25;;;;;;;;5078561;27;45321;-70
2024/02/21 05:02:07;;;;;;;;;15.00;15.00;;;;;;;;5077299;27;45538;-70
2024/02/21 05:04:32;;;;;;;;;11.67;11.67;;;;;;;;5078167;27;45544;-69
2024/02/21 05:06:57;;;;;;;;;17.67;12.67;;;;;;;;5080063;27;46069;-70
2024/02/21 05:09:22;;;;;;;;;12.00;12.00;;;;;;;;5081828;27;45318;-69
2024/02/21 05:11:47;;;;;;;;;23.00;15.00;;;;;;;;5080046;27;45408;-69
2024/02/21 05:14:12;;;;;;;;;14.33;10.33;;;;;;;;5081423;27;45302;-70
2024/02/21 05:16:38;;;;;;;;;15.50;14.25;;;;;;;;5080655;27;46339;-69
2024/02/21 05:19:04;;;;;;;;;15.50;14.50;;;;;;;;5080945;27;45305;-69
2024/02/21 05:21:29;;;;;;;;;12.75;12.00;;;;;;;;5076779;27;45423;-69
2024/02/21 05:23:54;;;;;;;;;12.33;11.00;;;;;;;;5080127;27;45388;-70
2024/02/21 05:26:20;;;;;;;;;11.67;10.67;;;;;;;;5079765;27;45996;-70
2024/02/21 05:28:45;;;;;;;;;15.00;13.00;;;;;;;;5079880;27;45381;-70
2024/02/21 05:31:10;;;;;;;;;16.00;15.33;;;;;;;;5080716;28;45377;-69
2024/02/21 05:33:35;;;;;;;;;16.33;13.67;;;;;;;;5080071;27;45298;-70
2024/02/21 05:36:01;;;;;;;;;15.33;15.33;;;;;;;;5077253;27;46025;-70
2024/02/21 05:38:26;;;;;;;;;16.00;14.00;;;;;;;;5080650;27;45309;-70
2024/02/21 05:40:51;;;;;;;;;15.67;14.00;;;;;;;;5081184;27;45429;-70
2024/02/21 05:43:16;;;;;;;;;13.67;11.67;;;;;;;;5080466;27;45333;-70
2024/02/21 05:45:41;;;;;;;;;15.33;10.00;;;;;;;;5080155;27;45599;-70
2024/02/21 05:48:07;;;;;;;;;13.67;13.33;;;;;;;;5080391;27;45583;-69
2024/02/21 05:50:32;;;;;;;;;13.50;13.50;;;;;;;;5080963;27;45378;-69
2024/02/21 05:52:57;;;;;;;;;16.00;13.75;;;;;;;;5080643;27;45404;-69
2024/02/21 05:55:22;;;;;;;;;16.50;14.00;;;;;;;;5078624;27;45464;-69
2024/02/21 05:57:48;;;;;;;;;15.00;12.33;;;;;;;;5070225;27;45348;-69
2024/02/21 06:00:14;;;;;;;;;16.75;12.00;;;;;;;;5080494;27;45396;-69
2024/02/21 06:02:39;;;;;;;;;10.50;10.50;;;;;;;;5080423;27;45476;-70
2024/02/21 06:05:07;;;;;;;;;17.25;15.25;;;;;;;;5080405;27;45456;-69
2024/02/21 06:07:32;;;;;;;;;18.25;15.75;;;;;;;;5079958;27;45444;-69
2024/02/21 06:09:57;;;;;;;;;15.33;12.33;;;;;;;;5080546;28;45235;-69
2024/02/21 06:12:22;;;;;;;;;16.00;16.00;;;;;;;;5079579;27;45631;-69
2024/02/21 06:14:48;;;;;;;;;16.00;16.00;;;;;;;;5079943;27;46376;-70
2024/02/21 06:17:13;;;;;;;;;15.00;11.33;;;;;;;;5078805;27;45326;-70
2024/02/21 06:19:39;;;;;;;;;15.00;14.67;;;;;;;;5080113;27;45390;-70
2024/02/21 06:22:07;;;;;;;;;13.50;11.50;;;;;;;;5080376;27;45540;-70
2024/02/21 06:24:32;;;;;;;;;14.00;12.50;;;;;;;;5080055;27;46155;-70
2024/02/21 06:26:58;;;;;;;;;15.33;14.00;;;;;;;;5080168;27;45292;-69
2024/02/21 06:29:23;;;;;;;;;11.67;11.67;;;;;;;;5080041;28;45640;-69
2024/02/21 06:31:48;;;;;;;;;16.00;13.33;;;;;;;;5078637;27;45438;-69
2024/02/21 06:34:13;;;;;;;;;10.33;9.00;;;;;;;;5079294;27;46130;-69
2024/02/21 06:36:38;;;;;;;;;17.33;13.33;;;;;;;;5078242;27;45341;-69
2024/02/21 06:39:07;;;;;;;;;11.67;11.67;;;;;;;;5080702;27;45520;-69
2024/02/21 06:41:34;;;;;;;;;12.25;12.25;;;;;;;;5079647;27;45342;-69
2024/02/21 06:43:59;;;;;;;;;16.00;14.50;;;;;;;;5080381;27;46045;-69
2024/02/21 06:46:25;;;;;;;;;14.00;10.33;;;;;;;;5079999;28;45544;-69
2024/02/21 06:48:50;;;;;;;;;15.00;11.50;;;;;;;;5080528;27;45405;-69
2024/02/21 06:51:16;;;;;;;;;11.00;11.00;;;;;;;;5078816;27;45424;-69
2024/02/21 06:53:41;;;;;;;;;14.75;13.50;;;;;;;;5080080;27;45360;-69
2024/02/21 06:56:06;;;;;;;;;10.00;10.00;;;;;;;;5078053;27;45781;-69
2024/02/21 06:58:31;;;;;;;;;14.00;11.67;;;;;;;;5080329;27;45342;-69
2024/02/21 07:00:56;;;;;;;;;12.33;11.00;;;;;;;;5080050;27;45430;-69
2024/02/21 07:03:24;;;;;;;;;13.00;10.00;;;;;;;;5080140;27;46210;-69
2024/02/21 07:05:49;;;;;;;;;11.50;10.50;;;;;;;;5079130;27;45438;-69
2024/02/21 07:08:14;;;;;;;;;13.00;10.67;;;;;;;;5079157;27;45420;-69
2024/02/21 07:10:39;;;;;;;;;12.67;10.67;;;;;;;;5078600;27;45475;-69
2024/02/21 07:13:04;;;;;;;;;11.67;9.67;;;;;;;;5079024;27;46665;-69
2024/02/21 07:15:30;;;;;;;;;9.33;8.67;;;;;;;;5079198;27;45471;-65
2024/02/21 07:17:56;;;;;;;;;13.75;11.75;;;;;;;;5075086;27;45557;-65
2024/02/21 07:20:21;;;;;;;;;15.33;10.00;;;;;;;;5077098;27;45464;-65
2024/02/21 07:22:46;;;;;;;;;9.00;9.00;;;;;;;;5097246;27;46347;-65
2024/02/21 07:25:11;;;;;;;;;9.33;8.00;;;;;;;;5095181;27;45279;-65
2024/02/21 07:27:37;;;;;;;;;14.00;9.00;;;;;;;;5098847;27;45555;-64
2024/02/21 07:30:02;;;;;;;;;9.50;8.75;;;;;;;;5100096;27;45555;-65
2024/02/21 07:32:27;;;;;;;;;8.00;7.00;;;;;;;;5079611;27;46291;-65
2024/02/21 07:34:52;;;;;;;;;10.25;9.25;;;;;;;;5074826;27;45575;-65
2024/02/21 07:37:18;;;;;;;;;10.00;9.00;;;;;;;;5081881;27;45359;-65
2024/02/21 07:39:43;;;;;;;;;10.00;9.00;;;;;;;;5100166;27;45600;-65
2024/02/21 07:42:08;;;;;;;;;16.67;12.00;;;;;;;;5076663;27;46027;-65
2024/02/21 07:44:34;;;;;;;;;12.67;10.00;;;;;;;;5070448;27;45258;-65
2024/02/21 07:46:59;;;;;;;;;8.50;8.25;;;;;;;;5097445;27;45474;-65
2024/02/21 07:49:24;;;;;;;;;17.67;15.33;;;;;;;;5096135;27;45471;-65
2024/02/21 07:51:50;;;;;;;;;11.00;10.33;;;;;;;;5079200;27;45499;-65
2024/02/21 07:54:15;;;;;;;;;10.50;10.25;;;;;;;;5079331;28;45470;-65
2024/02/21 07:56:40;;;;;;;;;13.33;10.33;;;;;;;;5071756;27;45602;-65
2024/02/21 07:59:05;;;;;;;;;10.67;8.67;;;;;;;;5099832;27;45435;-65
2024/02/21 08:01:31;;;;;;;;;11.00;10.00;;;;;;;;5088955;27;45471;-70
2024/02/21 08:03:56;;;;;;;;;10.75;9.25;;;;;;;;5068316;27;45605;-69
2024/02/21 08:06:22;;;;;;;;;11.33;10.33;;;;;;;;5087243;27;45548;-69
2024/02/21 08:08:47;;;;;;;;;5.00;4.50;;;;;;;;5096806;27;45478;-69
2024/02/21 08:11:12;;;;;;;;;10.50;8.25;;;;;;;;5090909;27;45494;-68
2024/02/21 08:13:37;;;;;;;;;8.33;7.67;;;;;;;;5078911;27;45424;-68
2024/02/21 08:16:03;;;;;;;;;9.00;8.00;;;;;;;;5080371;27;45402;-68
2024/02/21 08:18:28;;;;;;;;;6.25;6.25;;;;;;;;5077808;27;45476;-68
2024/02/21 08:20:54;;;;;;;;;8.75;8.50;;;;;;;;5086242;27;45624;-67
2024/02/21 08:23:19;;;;;;;;;10.00;10.00;;;;;;;;5086053;27;45422;-68
2024/02/21 08:25:44;;;;;;;;;10.00;10.00;;;;;;;;5098660;27;45395;-68
2024/02/21 08:28:09;;;;;;;;;8.33;8.00;;;;;;;;5085202;27;45388;-68
2024/02/21 08:30:35;;;;;;;;;12.33;10.67;;;;;;;;5084831;27;45565;-68
2024/02/21 08:33:00;;;;;;;;;10.33;10.00;;;;;;;;5082486;27;45526;-68
2024/02/21 08:35:25;;;;;;;;;14.33;10.67;;;;;;;;5078439;27;45457;-68
2024/02/21 08:37:50;;;;;;;;;10.75;10.50;;;;;;;;5077263;27;45523;-68
2024/02/21 08:40:20;;;;;;;;;15.00;10.50;;;;;;;;5085278;27;45408;-68
2024/02/21 08:42:46;;;;;;;;;11.50;9.75;;;;;;;;5088711;27;45695;-68
2024/02/21 08:45:11;;;;;;;;;10.25;9.25;;;;;;;;5085734;27;45413;-66
2024/02/21 08:47:38;;;;;;;;;10.00;9.00;;;;;;;;5088740;27;45315;-65
2024/02/21 08:50:04;;;;;;;;;11.00;9.00;;;;;;;;5069511;27;45521;-77
2024/02/21 08:52:29;;;;;;;;;11.50;9.25;;;;;;;;5081767;27;45376;-68
2024/02/21 08:54:54;;;;;;;;;11.00;10.67;;;;;;;;5081964;27;45306;-68
2024/02/21 08:57:20;;;;;;;;;10.00;9.67;;;;;;;;5077709;27;45804;-68
2024/02/21 08:59:45;;;;;;;;;8.75;8.00;;;;;;;;5081695;27;46067;-68
2024/02/21 09:02:11;;;;;;;;;12.25;9.50;;;;;;;;5082427;27;45318;-68
2024/02/21 09:04:37;;;;;;;;;9.67;9.00;;;;;;;;5078057;27;45434;-68
2024/02/21 09:07:02;;;;;;;;;10.33;10.00;;;;;;;;5075614;27;45340;-68
2024/02/21 09:09:28;;;;;;;;;17.00;11.50;;;;;;;;5081348;27;46241;-69
2024/02/21 09:11:53;;;;;;;;;13.50;11.00;;;;;;;;5080136;27;45377;-68
2024/02/21 09:14:19;;;;;;;;;10.25;9.25;;;;;;;;5080729;27;45493;-68
2024/02/21 09:16:44;;;;;;;;;10.00;8.67;;;;;;;;5080895;27;45408;-65
2024/02/21 09:19:10;;;;;;;;;12.33;9.33;;;;;;;;5080423;27;46006;-66
2024/02/21 09:21:36;;;;;;;;;9.75;9.00;;;;;;;;5080755;27;45417;-68
2024/02/21 09:24:02;;;;;;;;;16.50;10.00;;;;;;;;5081022;27;45672;-70
2024/02/21 09:26:27;;;;;;;;;10.00;8.25;;;;;;;;5073947;27;45628;-69
2024/02/21 09:28:52;;;;;;;;;8.00;7.00;;;;;;;;5080571;27;45982;-73
2024/02/21 09:31:17;;;;;;;;;6.00;6.00;;;;;;;;5078837;27;45491;-70
2024/02/21 09:33:42;;;;;;;;;11.33;10.00;;;;;;;;5075981;27;45463;-70
2024/02/21 09:36:08;;;;;;;;;11.00;9.33;;;;;;;;5078035;27;45369;-70
2024/02/21 09:38:33;;;;;;;;;9.75;9.75;;;;;;;;5072951;27;46186;-69
2024/02/21 09:41:00;;;;;;;;;11.00;9.67;;;;;;;;5067555;27;45488;-69
2024/02/21 09:43:26;;;;;;;;;10.25;9.25;;;;;;;;5079074;27;45325;-69
2024/02/21 09:45:55;;;;;;;;;9.00;9.00;;;;;;;;5062264;27;45333;-69
2024/02/21 09:48:35;;;;;;;;;7.00;4.50;;;;;;;;5073033;27;46380;-72
2024/02/21 09:51:01;;;;;;;;;13.25;11.25;;;;;;;;5072775;27;46112;-69
2024/02/21 09:53:27;;;;;;;;;8.75;8.25;;;;;;;;5090613;27;45423;-69
2024/02/21 09:55:53;;;;;;;;;12.00;11.00;;;;;;;;5077854;27;45477;-69
2024/02/21 09:58:18;;;;;;;;;8.75;8.75;;;;;;;;5077693;27;46227;-69
2024/02/21 10:00:43;;;;;;;;;9.25;9.25;;;;;;;;5088944;27;45390;-70
2024/02/21 10:03:09;;;;;;;;;10.00;9.00;;;;;;;;5073024;27;45424;-69
2024/02/21 10:05:37;;;;;;;;;10.25;10.25;;;;;;;;5067836;27;45512;-70
2024/02/21 10:08:03;;;;;;;;;10.00;9.25;;;;;;;;5097993;27;46236;-70
2024/02/21 10:10:29;;;;;;;;;9.75;9.75;;;;;;;;5068442;27;45428;-70
2024/02/21 10:12:55;;;;;;;;;10.50;10.00;;;;;;;;5080604;27;46442;-69
2024/02/21 10:15:24;;;;;;;;;9.75;9.75;;;;;;;;5066242;27;45309;-69
2024/02/21 10:17:50;;;;;;;;;8.75;7.25;;;;;;;;5072705;27;45252;-70
2024/02/21 10:20:16;;;;;;;;;9.50;9.25;;;;;;;;5080026;27;45299;-70
2024/02/21 10:22:41;;;;;;;;;9.25;9.25;;;;;;;;5089785;27;45484;-70
2024/02/21 10:25:07;;;;;;;;;13.33;10.00;;;;;;;;5091864;27;45311;-69
2024/02/21 10:27:32;;;;;;;;;14.00;10.00;;;;;;;;5079292;27;45577;-69
2024/02/21 10:29:57;;;;;;;;;11.33;8.67;;;;;;;;5083102;27;45417;-70
2024/02/21 10:32:22;;;;;;;;;16.33;11.67;;;;;;;;5089658;27;45420;-70
2024/02/21 10:34:51;;;;;;;;;9.00;9.00;;;;;;;;5082383;27;45569;-69
2024/02/21 10:37:16;;;;;;;;;10.75;9.00;;;;;;;;5078853;27;45302;-69
2024/02/21 10:39:42;;;;;;;;;9.67;9.00;;;;;;;;5090128;27;45389;-69
2024/02/21 10:42:10;;;;;;;;;9.25;9.25;;;;;;;;5082642;27;45432;-69
2024/02/21 10:44:42;;;;;;;;;8.00;5.25;;;;;;;;5090263;27;45344;-69
2024/02/21 10:47:08;;;;;;;;;9.00;8.00;;;;;;;;5085689;27;46465;-66
2024/02/21 10:49:39;;;;;;;;;9.75;7.50;;;;;;;;5089585;27;45522;-69
2024/02/21 10:52:07;;;;;;;;;6.00;6.00;;;;;;;;5085390;27;45402;-69
2024/02/21 10:54:47;;;;;;;;;10.00;9.50;;;;;;;;5086745;27;45509;-74
2024/02/21 10:57:13;;;;;;;;;7.75;7.25;;;;;;;;5077084;27;46446;-69
2024/02/21 10:59:39;;;;;;;;;12.25;8.25;;;;;;;;5084336;27;45506;-69
2024/02/21 11:02:04;;;;;;;;;8.25;8.00;;;;;;;;5087184;27;45563;-69
2024/02/21 11:04:31;;;;;;;;;9.67;9.67;;;;;;;;5083566;27;45563;-69
2024/02/21 11:06:56;;;;;;;;;5.25;5.25;;;;;;;;5079000;27;46026;-69
2024/02/21 11:09:29;;;;;;;;;10.25;9.75;;;;;;;;5081054;27;45358;-69
2024/02/21 11:11:55;;;;;;;;;10.00;6.75;;;;;;;;5095308;27;45390;-68
2024/02/21 11:14:21;;;;;;;;;7.00;5.00;;;;;;;;5093290;27;45546;-69
2024/02/21 11:16:46;;;;;;;;;9.75;6.50;;;;;;;;5089239;27;45469;-69
2024/02/21 11:19:28;;;;;;;;;9.75;9.75;;;;;;;;5086342;27;45377;-69
2024/02/21 11:21:55;;;;;;;;;9.25;7.25;;;;;;;;5077813;27;45440;-69
2024/02/21 11:24:30;;;;;;;;;6.75;6.00;;;;;;;;5076485;27;45665;-68
2024/02/21 11:26:56;;;;;;;;;6.50;5.75;;;;;;;;5073521;27;46334;-71
2024/02/21 11:29:25;;;;;;;;;8.25;7.00;;;;;;;;5076227;28;45424;-70
2024/02/21 11:31:51;;;;;;;;;6.25;6.25;;;;;;;;5070159;27;45476;-70
2024/02/21 11:34:19;;;;;;;;;9.00;6.00;;;;;;;;5076715;27;45428;-70
2024/02/21 11:36:51;;;;;;;;;6.25;6.00;;;;;;;;5074487;28;45455;-70
2024/02/21 11:39:20;;;;;;;;;5.75;4.50;;;;;;;;5079465;27;45596;-70
2024/02/21 11:41:46;;;;;;;;;6.25;5.00;;;;;;;;5079289;28;45514;-70
2024/02/21 11:44:11;;;;;;;;;10.00;8.00;;;;;;;;5079361;28;45300;-70
2024/02/21 11:46:36;;;;;;;;;6.33;6.33;;;;;;;;5077793;27;48260;-70
2024/02/21 11:49:03;;;;;;;;;8.33;6.33;;;;;;;;5076774;27;45352;-70
2024/02/21 11:51:28;;;;;;;;;7.50;7.50;;;;;;;;5079183;27;45441;-70
2024/02/21 11:53:53;;;;;;;;;8.50;7.00;;;;;;;;5079346;27;45338;-70
2024/02/21 11:56:19;;;;;;;;;8.67;7.00;;;;;;;;5075681;27;46223;-70
2024/02/21 11:58:45;;;;;;;;;7.00;7.00;;;;;;;;5077759;27;45452;-70
2024/02/21 12:01:11;;;;;;;;;7.50;7.00;;;;;;;;5078060;28;45450;-70
2024/02/21 12:03:36;;;;;;;;;9.00;7.00;;;;;;;;5077809;27;45581;-70
2024/02/21 12:06:03;;;;;;;;;5.00;5.00;;;;;;;;5078040;27;45433;-70
2024/02/21 12:08:29;;;;;;;;;8.25;7.00;;;;;;;;5077758;28;45403;-70
2024/02/21 12:10:54;;;;;;;;;8.25;8.25;;;;;;;;5078720;28;45531;-70
2024/02/21 12:13:22;;;;;;;;;11.00;8.00;;;;;;;;5077782;27;45518;-70
2024/02/21 12:15:48;;;;;;;;;8.25;8.25;;;;;;;;5082217;27;45487;-70
2024/02/21 12:18:14;;;;;;;;;7.75;7.00;;;;;;;;5082520;27;45556;-70
2024/02/21 12:20:42;;;;;;;;;7.00;6.75;;;;;;;;5082543;27;45295;-70
2024/02/21 12:23:09;;;;;;;;;5.75;5.75;;;;;;;;5080658;27;45390;-70
2024/02/21 12:25:34;;;;;;;;;5.00;5.00;;;;;;;;5082201;27;46455;-70
2024/02/21 12:28:00;;;;;;;;;6.50;6.00;;;;;;;;5081436;27;45574;-71
2024/02/21 12:30:26;;;;;;;;;6.00;6.00;;;;;;;;5078466;27;45582;-70
2024/02/21 12:32:51;;;;;;;;;6.50;6.50;;;;;;;;5080257;27;45510;-70
2024/02/21 12:35:17;;;;;;;;;7.67;6.00;;;;;;;;5075499;27;46660;-70
2024/02/21 12:37:42;;;;;;;;;8.25;7.75;;;;;;;;5092356;27;45584;-70
2024/02/21 12:40:10;;;;;;;;;11.50;10.00;;;;;;;;5084108;27;45488;-70
2024/02/21 12:42:35;;;;;;;;;7.00;7.00;;;;;;;;5082250;27;45531;-70
2024/02/21 12:45:02;;;;;;;;;8.00;7.50;;;;;;;;5096811;27;45415;-70
2024/02/21 12:47:28;;;;;;;;;10.25;7.00;;;;;;;;5101216;27;45483;-70
2024/02/21 12:49:53;;;;;;;;;5.33;5.33;;;;;;;;5092183;27;45384;-70
2024/02/21 12:52:18;;;;;;;;;7.00;7.00;;;;;;;;5090524;27;45377;-70
2024/02/21 12:54:44;;;;;;;;;7.00;6.00;;;;;;;;5087515;27;45465;-70
2024/02/21 12:57:09;;;;;;;;;8.00;8.00;;;;;;;;5087176;27;45461;-70
2024/02/21 12:59:34;;;;;;;;;6.33;6.00;;;;;;;;5088902;27;45432;-70
2024/02/21 13:01:59;;;;;;;;;6.00;6.00;;;;;;;;5101227;27;45556;-70
2024/02/21 13:04:24;;;;;;;;;7.00;4.00;;;;;;;;5101509;27;45551;-70
2024/02/21 13:06:50;;;;;;;;;8.00;6.00;;;;;;;;5070427;27;45404;-70
2024/02/21 13:09:15;;;;;;;;;4.00;4.00;;;;;;;;5082208;27;45421;-70
2024/02/21 13:11:41;;;;;;;;;7.00;6.00;;;;;;;;5089079;27;45746;-70
2024/02/21 13:14:06;;;;;;;;;9.00;8.00;;;;;;;;5086854;27;45520;-71
2024/02/21 13:16:34;;;;;;;;;2.00;2.00;;;;;;;;5100962;27;46263;-70
2024/02/21 13:18:59;;;;;;;;;12.75;7.25;;;;;;;;5098893;27;45419;-71
2024/02/21 13:21:24;;;;;;;;;9.00;9.00;;;;;;;;5081811;27;45400;-69
2024/02/21 13:23:49;;;;;;;;;7.33;6.67;;;;;;;;5080756;27;45785;-69
2024/02/21 13:26:15;;;;;;;;;7.00;6.00;;;;;;;;5080429;27;45288;-69
2024/02/21 13:28:40;;;;;;;;;7.00;7.00;;;;;;;;5077022;27;45424;-69
2024/02/21 13:31:05;;;;;;;;;9.33;8.00;;;;;;;;5082558;27;45585;-70
2024/02/21 13:33:31;;;;;;;;;9.25;6.75;;;;;;;;5080033;27;46019;-69
2024/02/21 13:35:56;;;;;;;;;9.00;5.00;;;;;;;;5087679;27;45254;-70
2024/02/21 13:38:21;;;;;;;;;9.33;7.67;;;;;;;;5100317;27;45524;-69
2024/02/21 13:40:46;;;;;;;;;9.67;7.00;;;;;;;;5082146;27;45362;-69
2024/02/21 13:43:12;;;;;;;;;8.67;7.00;;;;;;;;5080747;27;45676;-69
2024/02/21 13:45:37;;;;;;;;;8.00;7.00;;;;;;;;5071349;28;45475;-69
2024/02/21 13:48:06;;;;;;;;;9.25;9.00;;;;;;;;5080298;27;45442;-69
2024/02/21 13:50:31;;;;;;;;;9.25;7.75;;;;;;;;5083340;27;45526;-70
2024/02/21 13:52:56;;;;;;;;;5.00;4.00;;;;;;;;5084059;27;45261;-69
2024/02/21 13:55:28;;;;;;;;;10.25;6.25;;;;;;;;5072194;27;45371;-72
2024/02/21 13:57:53;;;;;;;;;11.00;11.00;;;;;;;;5076135;27;45583;-69
2024/02/21 14:00:20;;;;;;;;;10.50;10.00;;;;;;;;5076095;27;45565;-69
2024/02/21 14:02:45;;;;;;;;;11.50;8.75;;;;;;;;5076616;27;47037;-68
2024/02/21 14:05:10;;;;;;;;;7.50;6.75;;;;;;;;5072130;28;45589;-68
2024/02/21 14:07:36;;;;;;;;;11.00;11.00;;;;;;;;5072180;28;45383;-69
2024/02/21 14:10:01;;;;;;;;;12.67;10.00;;;;;;;;5077493;27;45586;-68
2024/02/21 14:12:26;;;;;;;;;11.25;8.25;;;;;;;;5076243;27;45681;-67
2024/02/21 14:14:52;;;;;;;;;10.00;8.00;;;;;;;;5076171;28;45541;-67
2024/02/21 14:17:17;;;;;;;;;10.33;7.67;;;;;;;;5077446;27;45548;-68